Time;durP1;ratioP1;P1;durP2;ratioP2;P2;SDS_P1;SDS_P2;PMS_P1;PMS_P2;Temp;Humidity;BMP_temperature;BMP_pressure;BME280_temperature;BME280_humidity;BME280_pressure;Samples;Min_cycle;Max_cycle;Signal;HPM_P1;HPM_P2
2021/12/16 00:06:19;;;;;;;31.30;21.75;;;7.70;99.90;;;;;;2606566;54;20071;31
2021/12/16 00:08:55;;;;;;;30.20;20.43;;;7.70;99.90;;;;;;2586972;54;20038;31
2021/12/16 00:19:32;;;;;;;27.98;20.17;;;7.70;99.90;;;;;;2586414;54;20049;31
2021/12/16 00:34:06;;;;;;;26.65;19.05;;;7.70;99.90;;;;;;2602518;54;20019;31
2021/12/16 00:36:44;;;;;;;27.27;19.17;;;7.60;99.90;;;;;;2588178;54;20032;31
2021/12/16 00:39:17;;;;;;;27.40;19.05;;;7.60;99.90;;;;;;2587708;54;20023;31
2021/12/16 00:41:53;;;;;;;25.15;18.52;;;7.60;99.90;;;;;;2620853;31;22259;31
2021/12/16 00:44:49;;;;;;;26.35;18.42;;;7.70;99.90;;;;;;2587253;54;20101;31
2021/12/16 00:47:34;;;;;;;26.67;19.02;;;7.70;99.90;;;;;;2606515;46;21014;-80
2021/12/16 00:50:23;;;;;;;24.15;18.00;;;7.60;99.90;;;;;;2586994;54;20279;31
2021/12/16 00:55:48;;;;;;;22.70;17.15;;;7.60;99.90;;;;;;2607969;54;20023;-80
2021/12/16 00:58:24;;;;;;;22.75;16.95;;;7.70;99.90;;;;;;2595715;54;20488;31
2021/12/16 01:01:07;;;;;;;25.05;17.50;;;7.70;99.90;;;;;;2593327;39;20883;31
2021/12/16 01:03:45;;;;;;;23.48;16.50;;;7.60;99.90;;;;;;2599721;54;20046;31
2021/12/16 01:09:44;;;;;;;23.80;16.73;;;7.60;99.90;;;;;;2605480;54;20026;31
2021/12/16 01:35:13;;;;;;;21.73;16.75;;;7.60;99.90;;;;;;2597611;54;20876;31
2021/12/16 01:49:23;;;;;;;21.30;14.93;;;7.60;99.90;;;;;;2586164;54;20760;31
2021/12/16 01:52:07;;;;;;;17.52;13.65;;;7.60;99.90;;;;;;2589958;54;20707;31
2021/12/16 01:54:51;;;;;;;22.05;15.45;;;7.60;99.90;;;;;;2590157;54;20753;31
2021/12/16 01:57:29;;;;;;;24.05;16.40;;;7.60;99.90;;;;;;2586869;54;20813;31
2021/12/16 02:00:08;;;;;;;18.50;15.43;;;7.60;99.90;;;;;;2587487;54;21269;31
2021/12/16 02:02:51;;;;;;;18.90;14.90;;;7.70;99.90;;;;;;2618062;46;20018;31
2021/12/16 02:05:33;;;;;;;19.98;16.15;;;7.60;99.90;;;;;;2587268;46;20097;31
2021/12/16 02:11:12;;;;;;;21.05;15.73;;;7.60;99.90;;;;;;2588812;54;20827;31
2021/12/16 02:28:04;;;;;;;21.60;16.98;;;7.60;99.90;;;;;;2586547;54;20026;31
2021/12/16 02:36:24;;;;;;;21.77;16.70;;;7.60;99.90;;;;;;2586055;54;20083;31
2021/12/16 02:39:03;;;;;;;21.55;16.35;;;7.60;99.90;;;;;;2586403;54;20022;31
2021/12/16 02:41:41;;;;;;;20.65;17.10;;;7.60;99.90;;;;;;2586061;54;20858;31
2021/12/16 02:49:51;;;;;;;20.88;16.85;;;7.60;99.90;;;;;;2587945;54;20856;-78
2021/12/16 02:52:22;;;;;;;21.45;16.10;;;7.60;99.90;;;;;;2585623;54;20114;31
2021/12/16 02:55:00;;;;;;;19.95;15.73;;;7.60;99.90;;;;;;2594793;54;20022;31
2021/12/16 02:57:38;;;;;;;21.92;17.42;;;7.70;99.90;;;;;;2590306;46;20687;31
2021/12/16 03:00:16;;;;;;;22.67;16.60;;;7.60;99.90;;;;;;2605432;54;20032;31
2021/12/16 03:02:51;;;;;;;23.45;17.92;;;7.60;99.90;;;;;;2586334;54;20756;31
2021/12/16 03:05:24;;;;;;;23.65;17.10;;;7.60;99.90;;;;;;2590563;54;21039;31
2021/12/16 03:07:57;;;;;;;21.25;16.50;;;7.60;99.90;;;;;;2590012;54;20042;31
2021/12/16 03:13:24;;;;;;;20.27;14.17;;;7.50;99.90;;;;;;2585603;54;20019;31
2021/12/16 03:16:08;;;;;;;17.30;12.75;;;7.50;99.90;;;;;;2586237;54;20026;31
2021/12/16 03:18:47;;;;;;;17.30;12.95;;;7.50;99.90;;;;;;2585984;54;20933;31
2021/12/16 03:21:27;;;;;;;17.27;12.13;;;7.50;99.90;;;;;;2585986;54;20023;31
2021/12/16 03:24:18;;;;;;;16.13;12.00;;;7.50;99.90;;;;;;2585756;54;21145;31
2021/12/16 03:27:29;;;;;;;18.30;12.10;;;7.50;99.90;;;;;;2585875;54;20858;31
2021/12/16 03:33:29;;;;;;;14.50;11.50;;;7.50;99.90;;;;;;2585945;54;20061;31
2021/12/16 03:36:13;;;;;;;16.23;12.57;;;7.50;99.90;;;;;;2586335;54;20889;31
2021/12/16 03:38:46;;;;;;;14.93;11.00;;;7.50;99.90;;;;;;2618904;46;20321;31
2021/12/16 03:41:19;;;;;;;18.45;13.00;;;7.50;99.90;;;;;;2586179;54;20028;31
2021/12/16 03:43:55;;;;;;;17.85;12.68;;;7.50;99.90;;;;;;2585880;54;20031;31
2021/12/16 03:46:31;;;;;;;17.87;13.00;;;7.50;99.90;;;;;;2586118;54;20029;31
2021/12/16 03:49:08;;;;;;;18.83;13.73;;;7.60;99.90;;;;;;2586058;54;20871;31
2021/12/16 03:51:47;;;;;;;16.88;12.68;;;7.50;99.90;;;;;;2586036;54;20868;31
2021/12/16 03:54:22;;;;;;;18.40;13.55;;;7.50;99.90;;;;;;2586144;47;20029;31
2021/12/16 03:56:59;;;;;;;18.80;14.40;;;7.50;99.90;;;;;;2586278;54;20034;31
2021/12/16 03:59:36;;;;;;;18.42;14.73;;;7.40;99.90;;;;;;2595500;54;20073;31
2021/12/16 04:02:35;;;;;;;19.50;13.77;;;7.40;99.90;;;;;;2586495;54;20946;31
2021/12/16 04:05:08;;;;;;;20.67;14.82;;;7.40;99.90;;;;;;2588723;54;20941;31
2021/12/16 04:07:44;;;;;;;19.00;14.48;;;7.50;99.90;;;;;;2599314;54;20026;31
2021/12/16 04:10:44;;;;;;;19.75;15.00;;;7.50;99.90;;;;;;2603149;54;20062;31
2021/12/16 04:13:19;;;;;;;20.10;15.35;;;7.50;99.90;;;;;;2586036;54;20841;31
2021/12/16 04:16:00;;;;;;;21.60;15.40;;;7.40;99.90;;;;;;2585997;54;20740;31
2021/12/16 04:18:34;;;;;;;23.45;15.80;;;7.50;99.90;;;;;;2592610;54;22198;31
2021/12/16 04:21:10;;;;;;;22.70;15.90;;;7.40;99.90;;;;;;2588492;54;20027;31
2021/12/16 04:23:44;;;;;;;22.00;15.63;;;7.40;99.90;;;;;;2585933;54;20134;31
2021/12/16 04:26:19;;;;;;;23.92;16.77;;;7.40;99.90;;;;;;2588690;47;20379;-78
2021/12/16 04:28:53;;;;;;;21.25;15.95;;;7.40;99.90;;;;;;2585159;54;20149;31
2021/12/16 04:31:28;;;;;;;22.20;16.40;;;7.40;99.90;;;;;;2587172;54;20073;31
2021/12/16 04:34:00;;;;;;;21.60;16.80;;;7.40;99.90;;;;;;2585940;54;20736;31
2021/12/16 04:36:39;;;;;;;24.20;16.20;;;7.30;99.90;;;;;;2592400;54;20943;31
2021/12/16 04:39:14;;;;;;;23.40;15.90;;;7.40;99.90;;;;;;2590431;39;22097;31
2021/12/16 04:41:50;;;;;;;21.88;15.90;;;7.30;99.90;;;;;;2592666;54;21280;31
2021/12/16 04:44:25;;;;;;;23.15;15.30;;;7.40;99.90;;;;;;2586095;54;21398;31
2021/12/16 04:47:01;;;;;;;29.00;19.05;;;7.30;99.90;;;;;;2585975;54;21297;31
2021/12/16 04:49:38;;;;;;;29.58;19.55;;;7.40;99.90;;;;;;2586550;54;20106;31
2021/12/16 04:52:13;;;;;;;25.47;17.80;;;7.30;99.90;;;;;;2586059;54;20867;31
2021/12/16 04:54:45;;;;;;;26.30;17.60;;;7.30;99.90;;;;;;2585721;54;20046;31
2021/12/16 04:57:18;;;;;;;27.02;17.25;;;7.30;99.90;;;;;;2605753;54;20034;31
2021/12/16 04:59:52;;;;;;;24.45;16.33;;;7.30;99.90;;;;;;2604957;54;20027;31
2021/12/16 05:02:29;;;;;;;23.35;16.80;;;7.30;99.90;;;;;;2586217;54;20792;31
2021/12/16 05:05:21;;;;;;;22.83;16.42;;;7.30;99.90;;;;;;2618815;47;20019;31
2021/12/16 05:07:54;;;;;;;20.95;15.30;;;7.30;99.90;;;;;;2602326;54;22043;31
2021/12/16 05:10:50;;;;;;;26.88;16.88;;;7.30;99.90;;;;;;2590118;54;20046;31
2021/12/16 05:13:28;;;;;;;25.30;16.90;;;7.30;99.90;;;;;;2601287;54;20022;31
2021/12/16 05:16:02;;;;;;;23.60;16.20;;;7.30;99.90;;;;;;2608024;54;21286;31
2021/12/16 05:18:42;;;;;;;22.30;15.95;;;7.40;99.90;;;;;;2606450;54;21750;31
2021/12/16 05:21:38;;;;;;;22.60;16.17;;;7.30;99.90;;;;;;2609559;46;20076;31
2021/12/16 05:24:16;;;;;;;26.90;16.85;;;7.40;99.90;;;;;;2594475;54;20026;31
2021/12/16 05:26:49;;;;;;;;;;;7.40;99.90;;;;;;2586573;54;20930;31
2021/12/16 05:29:30;;;;;;;23.10;16.83;;;7.40;99.90;;;;;;2586981;54;19945;31
2021/12/16 05:32:10;;;;;;;25.87;17.30;;;7.40;99.90;;;;;;2623682;46;20022;31
2021/12/16 05:34:47;;;;;;;28.08;18.30;;;7.40;99.90;;;;;;2596269;54;20021;31
2021/12/16 05:37:20;;;;;;;26.45;18.30;;;7.40;99.90;;;;;;2586886;54;19958;31
2021/12/16 05:39:54;;;;;;;30.95;18.90;;;7.40;99.90;;;;;;2586959;54;20988;31
2021/12/16 05:43:00;;;;;;;32.80;20.00;;;7.40;99.90;;;;;;2591834;54;20044;31
2021/12/16 05:45:32;;;;;;;31.73;20.70;;;7.40;99.90;;;;;;2606107;54;20097;-78
2021/12/16 05:48:06;;;;;;;36.30;20.87;;;7.40;99.90;;;;;;2608847;46;20925;31
2021/12/16 05:50:44;;;;;;;35.43;22.40;;;7.30;99.90;;;;;;2589383;54;21185;-75
2021/12/16 05:53:16;;;;;;;40.75;23.17;;;7.30;99.90;;;;;;2609203;54;20019;31
2021/12/16 05:55:49;;;;;;;40.30;24.13;;;7.30;99.90;;;;;;2589324;54;20022;31
2021/12/16 05:58:29;;;;;;;44.70;26.20;;;7.30;99.90;;;;;;2586560;54;21091;31
2021/12/16 06:01:07;;;;;;;43.55;25.45;;;7.30;99.90;;;;;;2596810;46;20895;31
2021/12/16 06:03:41;;;;;;;42.55;24.35;;;7.30;99.90;;;;;;2608304;54;20867;31
2021/12/16 06:06:18;;;;;;;40.30;25.33;;;7.20;99.90;;;;;;2608497;54;20057;31
2021/12/16 06:09:06;;;;;;;45.65;24.45;;;7.30;99.90;;;;;;2604596;54;20027;31
2021/12/16 06:11:40;;;;;;;39.25;23.63;;;7.30;99.90;;;;;;2586558;54;20163;31
2021/12/16 06:14:23;;;;;;;44.85;25.63;;;7.30;99.90;;;;;;2607920;54;20930;31
2021/12/16 06:23:12;;;;;;;48.47;28.17;;;7.30;99.90;;;;;;2596131;54;20033;31
2021/12/16 06:28:24;;;;;;;44.97;25.00;;;7.30;99.90;;;;;;2586124;54;20053;31
2021/12/16 06:30:57;;;;;;;50.00;26.60;;;7.30;99.90;;;;;;2586850;54;20030;31
2021/12/16 06:33:30;;;;;;;43.72;25.17;;;7.30;99.90;;;;;;2585012;54;20133;31
2021/12/16 06:36:06;;;;;;;38.97;24.63;;;7.30;99.90;;;;;;2605409;54;21068;31
2021/12/16 06:38:43;;;;;;;;;;;7.30;99.90;;;;;;2612616;46;20808;31
2021/12/16 06:41:34;;;;;;;51.45;25.95;;;7.30;99.90;;;;;;2604566;46;19939;31
2021/12/16 06:44:33;;;;;;;46.97;26.03;;;7.30;99.90;;;;;;2594083;54;20063;31
2021/12/16 06:47:11;;;;;;;49.60;27.55;;;7.30;99.90;;;;;;2585451;54;20753;31
2021/12/16 06:49:55;;;;;;;41.33;25.08;;;7.30;99.90;;;;;;2585670;54;20453;31
2021/12/16 06:52:34;;;;;;;50.13;28.17;;;7.30;99.90;;;;;;2604721;46;20960;31
2021/12/16 06:55:21;;;;;;;49.83;27.33;;;7.30;99.90;;;;;;2606020;54;20051;31
2021/12/16 06:57:57;;;;;;;60.80;29.95;;;7.30;99.90;;;;;;2592171;54;20093;31
2021/12/16 07:00:40;;;;;;;48.15;28.25;;;7.30;99.90;;;;;;2689358;31;20404;31
2021/12/16 07:03:21;;;;;;;47.08;27.08;;;7.30;99.90;;;;;;2626899;46;20082;31
2021/12/16 07:05:58;;;;;;;55.95;27.80;;;7.30;99.90;;;;;;2609605;54;20015;-75
2021/12/16 07:08:32;;;;;;;59.38;28.73;;;7.30;99.90;;;;;;2610738;54;20022;31
2021/12/16 07:11:12;;;;;;;56.75;29.92;;;7.30;99.90;;;;;;2602734;54;20023;-78
2021/12/16 07:16:20;;;;;;;61.10;30.70;;;7.30;99.90;;;;;;2609080;54;20046;31
2021/12/16 07:18:53;;;;;;;73.63;32.38;;;7.30;99.90;;;;;;2630880;54;20031;-78
2021/12/16 07:21:37;;;;;;;63.97;31.77;;;7.20;99.90;;;;;;2630776;54;20987;-76
2021/12/16 07:24:17;;;;;;;69.22;31.92;;;7.20;99.90;;;;;;2617164;54;20034;-81
2021/12/16 07:26:51;;;;;;;71.63;32.03;;;7.20;99.90;;;;;;2615471;54;20270;-76
2021/12/16 07:29:27;;;;;;;62.97;30.92;;;7.20;99.90;;;;;;2606094;54;20019;-78
2021/12/16 07:32:01;;;;;;;63.50;30.75;;;7.20;99.90;;;;;;2624286;54;20034;-76
2021/12/16 07:34:38;;;;;;;60.28;30.38;;;7.20;99.90;;;;;;2616919;54;20070;-75
2021/12/16 07:37:16;;;;;;;58.30;31.20;;;7.20;99.90;;;;;;2604455;54;20791;31
2021/12/16 07:39:53;;;;;;;69.80;32.47;;;7.20;99.90;;;;;;2590510;54;20732;31
2021/12/16 07:42:30;;;;;;;66.78;32.08;;;7.20;99.90;;;;;;2622890;54;20262;31
2021/12/16 07:45:09;;;;;;;66.77;31.70;;;7.20;99.90;;;;;;2612035;39;22200;31
2021/12/16 07:47:41;;;;;;;76.47;33.30;;;7.20;99.90;;;;;;2606474;54;21225;-79
2021/12/16 07:50:15;;;;;;;63.47;30.95;;;7.20;99.90;;;;;;2618034;54;20848;31
2021/12/16 07:52:48;;;;;;;66.65;32.80;;;7.20;99.90;;;;;;2630940;54;20031;-82
2021/12/16 07:55:21;;;;;;;72.72;33.05;;;7.20;99.90;;;;;;2631019;54;20049;-81
2021/12/16 07:57:53;;;;;;;65.60;32.67;;;7.20;99.90;;;;;;2630980;54;20029;-79
2021/12/16 08:03:03;;;;;;;62.38;32.38;;;7.30;99.90;;;;;;2630476;54;20011;-79
2021/12/16 08:05:39;;;;;;;70.32;33.25;;;7.20;99.90;;;;;;2626268;54;20079;-77
2021/12/16 08:08:11;;;;;;;58.50;31.58;;;7.30;99.90;;;;;;2630504;54;20015;-79
2021/12/16 08:10:47;;;;;;;69.93;32.78;;;7.30;99.90;;;;;;2626704;54;20031;-77
2021/12/16 08:13:19;;;;;;;65.07;32.70;;;7.30;99.90;;;;;;2630262;54;20061;-78
2021/12/16 08:15:51;;;;;;;68.97;32.50;;;7.30;99.90;;;;;;2614087;54;20074;-73
2021/12/16 08:18:28;;;;;;;59.03;29.85;;;7.30;99.90;;;;;;2608914;54;20022;31
2021/12/16 08:21:01;;;;;;;58.83;29.00;;;7.30;99.90;;;;;;2612181;54;20018;31
2021/12/16 08:23:35;;;;;;;59.72;31.20;;;7.20;99.90;;;;;;2596417;54;20026;31
2021/12/16 08:26:10;;;;;;;60.93;29.83;;;7.30;99.90;;;;;;2613069;54;20027;-76
2021/12/16 08:31:33;;;;;;;60.63;28.70;;;7.30;99.90;;;;;;2607589;54;20893;-76
2021/12/16 08:34:17;;;;;;;58.40;29.38;;;7.30;99.90;;;;;;2611283;54;20019;31
2021/12/16 08:36:52;;;;;;;63.83;29.37;;;7.30;99.90;;;;;;2585554;54;20022;31
2021/12/16 08:39:25;;;;;;;57.33;27.27;;;7.30;99.90;;;;;;2599631;54;20137;31
2021/12/16 08:41:59;;;;;;;56.90;27.20;;;7.30;99.90;;;;;;2590318;54;20023;31
2021/12/16 08:44:34;;;;;;;53.47;26.65;;;7.30;99.90;;;;;;2593535;54;20119;31
2021/12/16 08:47:09;;;;;;;58.25;26.20;;;7.30;99.90;;;;;;2587677;54;20997;31
2021/12/16 08:49:45;;;;;;;51.22;24.20;;;7.30;99.90;;;;;;2597945;54;20023;31
2021/12/16 08:52:21;;;;;;;50.90;25.20;;;7.30;99.90;;;;;;2587298;54;20050;31
2021/12/16 08:54:53;;;;;;;56.53;27.13;;;7.30;99.90;;;;;;2595458;54;20304;31
2021/12/16 08:57:29;;;;;;;55.20;26.63;;;7.30;99.90;;;;;;2586548;54;20028;31
2021/12/16 09:00:03;;;;;;;48.50;24.38;;;7.30;99.90;;;;;;2607899;39;20963;31
2021/12/16 09:02:40;;;;;;;45.65;23.55;;;7.30;99.90;;;;;;2595402;54;20932;-77
2021/12/16 09:05:24;;;;;;;56.53;24.30;;;7.30;99.90;;;;;;2615307;54;20022;31
2021/12/16 09:08:04;;;;;;;55.15;25.13;;;7.30;99.90;;;;;;2614554;54;20875;31
2021/12/16 09:10:38;;;;;;;43.53;22.93;;;7.30;99.90;;;;;;2589876;54;20867;31
2021/12/16 09:13:17;;;;;;;48.50;22.88;;;7.40;99.90;;;;;;2614903;54;20050;-73
2021/12/16 09:18:23;;;;;;;43.53;21.27;;;7.40;99.90;;;;;;2631800;54;20034;-82
2021/12/16 09:23:34;;;;;;;46.33;20.48;;;7.30;99.90;;;;;;2606600;54;20802;31
2021/12/16 09:26:07;;;;;;;37.03;19.85;;;7.30;99.90;;;;;;2601763;54;20923;-75
2021/12/16 09:28:42;;;;;;;39.63;19.50;;;7.30;99.90;;;;;;2626387;54;20191;31
2021/12/16 09:36:39;;;;;;;36.08;17.92;;;7.30;99.90;;;;;;2609387;54;20126;31
2021/12/16 09:39:21;;;;;;;;;;;7.30;99.90;;;;;;2615901;54;20116;-78
2021/12/16 09:41:59;;;;;;;28.02;16.05;;;7.30;99.90;;;;;;2619904;54;20625;31
2021/12/16 09:44:32;;;;;;;31.50;16.27;;;7.30;99.90;;;;;;2625666;54;20075;31
2021/12/16 09:47:05;;;;;;;27.87;15.77;;;7.40;99.90;;;;;;2616130;54;20082;-77
2021/12/16 09:49:39;;;;;;;29.65;15.15;;;7.40;99.90;;;;;;2614730;54;20946;31
2021/12/16 09:52:13;;;;;;;25.73;14.68;;;7.40;99.90;;;;;;2611265;54;20050;31
2021/12/16 09:54:48;;;;;;;27.02;14.68;;;7.40;99.90;;;;;;2617471;54;20925;31
2021/12/16 09:57:24;;;;;;;25.33;14.80;;;7.40;99.90;;;;;;2616100;54;20023;31
2021/12/16 09:59:56;;;;;;;24.80;15.50;;;7.40;99.90;;;;;;2631488;46;20022;31
2021/12/16 10:02:32;;;;;;;30.88;15.48;;;7.50;99.90;;;;;;2618251;46;20826;-75
2021/12/16 10:05:06;;;;;;;26.10;14.23;;;7.50;99.90;;;;;;2621009;54;20034;31
2021/12/16 10:07:50;;;;;;;23.23;14.18;;;7.50;99.90;;;;;;2632111;39;20725;31
2021/12/16 10:10:24;;;;;;;25.00;14.35;;;7.40;99.90;;;;;;2637110;46;20019;-79
2021/12/16 10:13:23;;;;;;;24.42;14.38;;;7.50;99.90;;;;;;2631720;54;20015;-79
2021/12/16 10:18:57;;;;;;;22.02;13.35;;;7.50;99.90;;;;;;2620628;54;20262;-78
2021/12/16 10:21:31;;;;;;;18.48;12.45;;;7.50;99.90;;;;;;2629856;54;20066;-81
2021/12/16 10:24:06;;;;;;;20.73;12.47;;;7.50;99.90;;;;;;2618460;54;20022;-76
2021/12/16 10:26:39;;;;;;;18.83;12.27;;;7.50;99.90;;;;;;2631551;54;20529;-79
2021/12/16 10:29:17;;;;;;;20.85;13.55;;;7.50;99.90;;;;;;2631484;54;20007;-79
2021/12/16 10:31:48;;;;;;;18.40;12.95;;;7.60;99.90;;;;;;2631610;54;20025;-79
2021/12/16 10:34:21;;;;;;;23.88;13.85;;;7.60;99.90;;;;;;2624944;54;20928;31
2021/12/16 10:36:56;;;;;;;20.10;12.30;;;7.50;99.90;;;;;;2618587;54;20019;31
2021/12/16 10:39:29;;;;;;;23.33;14.23;;;7.50;99.90;;;;;;2631220;54;20034;-80
2021/12/16 10:44:39;;;;;;;22.95;14.10;;;7.50;99.90;;;;;;2632039;39;20417;-78
2021/12/16 10:47:13;;;;;;;24.08;15.40;;;7.50;99.90;;;;;;2638983;46;20037;-81
2021/12/16 10:49:49;;;;;;;25.67;15.82;;;7.50;99.90;;;;;;2630771;54;20532;-80
2021/12/16 10:52:27;;;;;;;25.10;15.68;;;7.60;99.90;;;;;;2636513;46;20054;-78
2021/12/16 10:55:02;;;;;;;26.83;15.80;;;7.60;99.90;;;;;;2630598;54;20041;-79
2021/12/16 10:57:36;;;;;;;25.33;15.43;;;7.60;99.90;;;;;;2623993;54;20018;31
2021/12/16 11:00:18;;;;;;;27.02;16.67;;;7.60;99.90;;;;;;2631823;46;20585;-78
2021/12/16 11:03:01;;;;;;;24.20;15.23;;;7.60;99.90;;;;;;2623554;54;21003;31
2021/12/16 11:05:34;;;;;;;21.95;15.63;;;7.60;99.90;;;;;;2624734;54;20021;31
2021/12/16 11:08:11;;;;;;;24.80;14.70;;;7.60;99.90;;;;;;2617012;54;20080;31
2021/12/16 11:10:54;;;;;;;27.52;15.18;;;7.60;99.90;;;;;;2606856;54;20029;31
2021/12/16 11:13:33;;;;;;;27.08;17.48;;;7.60;99.90;;;;;;2618715;54;20745;31
2021/12/16 11:16:14;;;;;;;21.70;15.85;;;7.60;99.90;;;;;;2633976;31;21772;31
2021/12/16 11:18:46;;;;;;;25.73;15.32;;;7.60;99.90;;;;;;2618607;54;21000;31
2021/12/16 11:21:24;;;;;;;22.75;14.93;;;7.60;99.90;;;;;;2626887;46;20105;-79
2021/12/16 11:24:01;;;;;;;24.98;16.92;;;7.60;99.90;;;;;;2614846;54;20082;31
2021/12/16 11:26:38;;;;;;;26.57;16.93;;;7.50;99.90;;;;;;2630854;46;20518;-81
2021/12/16 11:29:17;;;;;;;36.30;14.03;;;7.50;99.90;;;;;;2623672;54;20128;-78
2021/12/16 11:31:52;;;;;;;30.03;17.87;;;7.70;99.90;;;;;;2611106;54;20019;31
2021/12/16 11:34:32;;;;;;;31.40;19.35;;;7.60;99.90;;;;;;2611037;54;21158;31
2021/12/16 11:37:04;;;;;;;33.40;18.90;;;7.60;99.90;;;;;;2616281;46;20022;-74
2021/12/16 11:39:41;;;;;;;33.10;17.65;;;7.50;99.90;;;;;;2614420;54;20037;31
2021/12/16 11:42:16;;;;;;;33.30;17.63;;;7.60;99.90;;;;;;2615870;54;20026;-77
2021/12/16 11:44:50;;;;;;;28.30;16.70;;;7.50;99.90;;;;;;2616684;54;20015;-78
2021/12/16 11:47:26;;;;;;;31.48;16.38;;;7.50;99.90;;;;;;2620961;54;20950;-76
2021/12/16 11:50:07;;;;;;;25.08;16.02;;;7.60;99.90;;;;;;2615058;54;20042;-79
2021/12/16 11:52:53;;;;;;;21.85;13.90;;;7.60;99.90;;;;;;2631005;54;20021;-82
2021/12/16 11:55:30;;;;;;;29.25;15.88;;;7.60;99.90;;;;;;2611471;54;21346;31
2021/12/16 11:58:06;;;;;;;24.63;13.82;;;7.60;99.90;;;;;;2614688;54;20034;31
2021/12/16 12:00:40;;;;;;;25.95;13.95;;;7.60;99.90;;;;;;2611552;54;20014;31
2021/12/16 12:03:17;;;;;;;26.08;14.43;;;7.60;99.90;;;;;;2600645;54;20074;31
2021/12/16 12:05:57;;;;;;;24.45;14.60;;;7.60;99.90;;;;;;2612821;47;20899;31
2021/12/16 12:08:35;;;;;;;25.97;14.93;;;7.70;99.90;;;;;;2605131;46;19998;31
2021/12/16 12:11:09;;;;;;;22.42;13.27;;;7.70;99.90;;;;;;2585967;54;20242;31
2021/12/16 12:13:48;;;;;;;22.85;13.98;;;7.60;99.90;;;;;;2587583;54;20102;31
2021/12/16 12:16:28;;;;;;;22.00;12.68;;;7.60;99.90;;;;;;2585853;54;20151;31
2021/12/16 12:19:02;;;;;;;20.88;13.43;;;7.60;99.90;;;;;;2585405;54;20032;31
2021/12/16 12:21:40;;;;;;;24.70;14.00;;;7.60;99.90;;;;;;2586240;54;20037;31
2021/12/16 12:24:18;;;;;;;24.67;15.00;;;7.60;99.90;;;;;;2586123;54;20038;31
2021/12/16 12:29:51;;;;;;;26.23;14.60;;;7.60;99.90;;;;;;2605743;54;20113;31
2021/12/16 12:32:29;;;;;;;25.08;13.48;;;7.60;99.90;;;;;;2607894;54;20049;-76
2021/12/16 12:35:07;;;;;;;23.80;14.70;;;7.50;99.90;;;;;;2605244;54;20055;31
2021/12/16 12:37:41;;;;;;;24.48;14.65;;;7.60;99.90;;;;;;2608217;54;20022;31
2021/12/16 12:40:20;;;;;;;18.98;13.00;;;7.60;99.90;;;;;;2609443;54;20043;-76
2021/12/16 12:43:00;;;;;;;23.92;15.15;;;7.60;99.90;;;;;;2614310;54;20023;31
2021/12/16 12:45:41;;;;;;;24.48;14.85;;;7.60;99.90;;;;;;2611246;54;20296;31
2021/12/16 12:48:23;;;;;;;20.00;13.30;;;7.60;99.90;;;;;;2614212;47;20022;31
2021/12/16 12:51:05;;;;;;;23.50;15.07;;;7.70;99.90;;;;;;2605840;54;21522;31
2021/12/16 12:59:15;;;;;;;22.75;14.18;;;7.60;99.90;;;;;;2612768;54;20022;31
2021/12/16 13:01:52;;;;;;;22.77;14.10;;;7.60;99.90;;;;;;2614868;54;20023;31
2021/12/16 13:04:31;;;;;;;20.92;13.13;;;7.50;99.90;;;;;;2617577;54;19938;31
2021/12/16 13:07:11;;;;;;;22.85;13.65;;;7.50;99.90;;;;;;2606767;54;20041;31
2021/12/16 13:09:57;;;;;;;24.93;15.00;;;7.50;99.90;;;;;;2618561;54;20019;31
2021/12/16 13:12:49;;;;;;;25.43;15.00;;;7.50;99.90;;;;;;2628543;47;20322;31
2021/12/16 13:15:48;;;;;;;21.55;13.85;;;7.50;99.90;;;;;;2603509;54;20023;31
2021/12/16 13:27:08;;;;;;;;;;;7.40;99.90;;;;;;2613138;54;20800;31
2021/12/16 13:29:54;;;;;;;21.17;13.23;;;7.50;99.90;;;;;;2631780;54;19929;-80
2021/12/16 13:32:42;;;;;;;22.15;13.73;;;7.50;99.90;;;;;;2623186;54;20030;31
2021/12/16 13:35:33;;;;;;;24.02;14.68;;;7.40;99.90;;;;;;2631934;54;20015;-82
2021/12/16 13:38:11;;;;;;;22.15;12.82;;;7.50;99.90;;;;;;2618822;54;20015;31
2021/12/16 13:40:47;;;;;;;22.98;13.50;;;7.40;99.90;;;;;;2617184;39;20307;-78
2021/12/16 13:46:55;;;;;;;18.80;11.63;;;7.40;99.90;;;;;;2613312;54;20053;31
2021/12/16 14:04:35;;;;;;;19.10;10.98;;;7.40;99.90;;;;;;2607375;54;20026;31
2021/12/16 14:07:39;;;;;;;18.35;11.25;;;7.40;99.90;;;;;;2615637;54;20111;31
2021/12/16 14:47:53;;;;;;;17.95;10.90;;;7.40;99.90;;;;;;2618893;46;21390;31
2021/12/16 14:50:32;;;;;;;17.33;10.85;;;7.50;99.90;;;;;;2612575;54;20023;31
2021/12/16 14:53:14;;;;;;;19.13;11.18;;;7.50;99.90;;;;;;2631547;54;20533;-82
2021/12/16 14:55:48;;;;;;;15.73;10.98;;;7.40;99.90;;;;;;2622866;54;20023;31
2021/12/16 14:58:33;;;;;;;16.55;11.13;;;7.50;99.90;;;;;;2624804;54;22872;-79
2021/12/16 15:01:15;;;;;;;18.05;10.65;;;7.40;99.90;;;;;;2615963;46;20033;-80
2021/12/16 15:03:54;;;;;;;15.50;10.55;;;7.40;99.90;;;;;;2619584;54;20022;31
2021/12/16 15:06:36;;;;;;;14.45;10.55;;;7.50;99.90;;;;;;2631144;54;20068;-81
2021/12/16 15:11:53;;;;;;;16.70;10.87;;;7.40;99.90;;;;;;2611592;54;20122;31
2021/12/16 15:14:38;;;;;;;17.38;11.52;;;7.40;99.90;;;;;;2604142;54;20298;31
2021/12/16 15:17:26;;;;;;;20.00;12.02;;;7.40;99.90;;;;;;2614938;54;20887;31
2021/12/16 15:37:15;;;;;;;16.40;10.18;;;7.30;99.90;;;;;;2630999;54;20038;-79
2021/12/16 15:40:30;;;;;;;15.75;10.32;;;7.30;99.90;;;;;;2631120;54;20014;-80
2021/12/16 15:43:13;;;;;;;12.65;8.90;;;7.20;99.90;;;;;;2632111;46;20017;-79
2021/12/16 15:45:48;;;;;;;16.85;10.70;;;7.20;99.90;;;;;;2631099;54;20018;-81
2021/12/16 15:48:26;;;;;;;15.00;11.02;;;7.10;99.90;;;;;;2608868;54;20033;31
2021/12/16 15:51:15;;;;;;;15.05;10.40;;;7.10;99.90;;;;;;2615247;54;20030;-78
2021/12/16 15:53:55;;;;;;;13.10;9.40;;;7.00;99.90;;;;;;2618740;46;20865;31
2021/12/16 15:56:33;;;;;;;15.98;10.30;;;7.00;99.90;;;;;;2621189;54;20042;-80
2021/12/16 15:59:06;;;;;;;13.60;10.02;;;7.00;99.90;;;;;;2630257;54;21377;-78
2021/12/16 16:01:42;;;;;;;14.63;9.27;;;7.00;99.90;;;;;;2630246;54;20022;-79
2021/12/16 16:04:18;;;;;;;15.80;9.65;;;6.90;99.90;;;;;;2630569;54;20042;-80
2021/12/16 16:07:04;;;;;;;13.65;9.65;;;6.90;99.90;;;;;;2630687;54;20023;-81
2021/12/16 16:09:40;;;;;;;12.23;9.05;;;6.80;99.90;;;;;;2635523;46;20516;-80
2021/12/16 16:12:30;;;;;;;15.30;10.23;;;6.80;99.90;;;;;;2630649;54;20587;-78
2021/12/16 16:15:16;;;;;;;12.40;8.57;;;6.80;99.90;;;;;;2630616;54;20037;-80
2021/12/16 16:18:13;;;;;;;15.90;8.48;;;6.70;99.90;;;;;;2631263;54;20038;-80
2021/12/16 16:20:48;;;;;;;14.00;7.85;;;6.70;99.90;;;;;;2630314;54;20015;-78
2021/12/16 16:23:30;;;;;;;12.03;8.47;;;6.60;99.90;;;;;;2631935;39;20596;-78
2021/12/16 16:26:06;;;;;;;14.32;8.40;;;6.60;99.90;;;;;;2630442;54;20011;-79
2021/12/16 16:28:41;;;;;;;10.48;7.72;;;6.70;99.90;;;;;;2632349;47;20030;-79
2021/12/16 16:31:19;;;;;;;9.52;6.93;;;6.60;99.90;;;;;;2620576;54;20034;-77
2021/12/16 16:34:11;;;;;;;10.05;6.72;;;6.60;99.90;;;;;;2630312;54;20027;-79
2021/12/16 16:36:43;;;;;;;10.98;7.25;;;6.60;99.90;;;;;;2630403;54;20010;-79
2021/12/16 16:41:51;;;;;;;9.05;6.70;;;6.50;99.90;;;;;;2630849;47;20074;-81
2021/12/16 16:44:25;;;;;;;11.63;7.68;;;6.50;99.90;;;;;;2630405;54;20033;-77
2021/12/16 16:47:09;;;;;;;12.65;8.52;;;6.40;99.90;;;;;;2640456;39;20546;-79
2021/12/16 16:49:49;;;;;;;14.27;8.43;;;6.50;99.90;;;;;;2619728;54;20990;-77
2021/12/16 16:52:39;;;;;;;12.13;8.40;;;6.50;99.90;;;;;;2630983;54;20108;-77
2021/12/16 16:55:21;;;;;;;12.15;7.78;;;6.50;99.90;;;;;;2630614;54;20593;-78
2021/12/16 16:57:58;;;;;;;11.95;7.40;;;6.50;99.90;;;;;;2631038;54;20022;-78
2021/12/16 17:00:30;;;;;;;13.50;7.85;;;6.60;99.90;;;;;;2627745;54;20120;31
2021/12/16 17:03:03;;;;;;;10.70;7.90;;;6.60;99.90;;;;;;2631659;54;20022;-79
2021/12/16 17:05:43;;;;;;;12.02;7.75;;;6.60;99.90;;;;;;2632518;46;20560;-78
2021/12/16 17:08:21;;;;;;;11.50;7.88;;;6.60;99.90;;;;;;2603211;54;20018;-73
2021/12/16 17:10:56;;;;;;;12.00;7.80;;;6.60;99.90;;;;;;2600598;54;20058;31
2021/12/16 17:13:45;;;;;;;11.77;8.05;;;6.60;99.90;;;;;;2614039;46;20074;31
2021/12/16 17:19:14;;;;;;;13.90;8.60;;;6.60;99.90;;;;;;2586732;54;20980;31
2021/12/16 17:21:52;;;;;;;12.32;8.07;;;6.60;99.90;;;;;;2586260;54;20470;31
2021/12/16 17:24:30;;;;;;;11.97;8.70;;;6.50;99.90;;;;;;2592489;54;20026;31
2021/12/16 17:27:07;;;;;;;13.20;8.60;;;6.60;99.90;;;;;;2586780;54;20030;31
2021/12/16 17:30:15;;;;;;;12.00;7.90;;;6.60;99.90;;;;;;2586238;54;20931;31
2021/12/16 17:32:48;;;;;;;13.40;7.97;;;6.50;99.90;;;;;;2586561;54;21306;31
2021/12/16 17:35:40;;;;;;;11.60;8.65;;;6.50;99.90;;;;;;2600546;54;20718;31